Time;durP1;ratioP1;P1;durP2;ratioP2;P2;SDS_P1;SDS_P2;PMS_P1;PMS_P2;Temp;Humidity;BMP_temperature;BMP_pressure;BME280_temperature;BME280_humidity;BME280_pressure;Samples;Min_cycle;Max_cycle;Signal;HPM_P1;HPM_P2
2022/04/14 00:01:26;;;;;;;19.98;10.15;;;;;;;;;;6220202;23;20460;-64
2022/04/14 00:03:52;;;;;;;14.77;9.98;;;;;;;;;;6220225;23;20141;-64
2022/04/14 00:06:18;;;;;;;16.70;10.30;;;;;;;;;;6220331;23;20137;-64
2022/04/14 00:08:44;;;;;;;21.52;11.18;;;;;;;;;;6193715;23;20150;-64
2022/04/14 00:11:10;;;;;;;20.58;11.88;;;;;;;;;;6220257;23;20436;-64
2022/04/14 00:13:36;;;;;;;22.27;11.82;;;;;;;;;;6220040;23;20157;-63
2022/04/14 00:16:02;;;;;;;20.90;11.80;;;;;;;;;;6220026;23;20152;-63
2022/04/14 00:18:28;;;;;;;19.15;11.35;;;;;;;;;;6220175;23;20564;-65
2022/04/14 00:20:54;;;;;;;17.35;11.43;;;;;;;;;;6219594;23;20168;-65
2022/04/14 00:23:19;;;;;;;18.30;11.40;;;;;;;;;;6219004;23;20141;-65
2022/04/14 00:25:45;;;;;;;20.45;11.93;;;;;;;;;;6219622;23;20145;-65
2022/04/14 00:28:11;;;;;;;17.88;11.27;;;;;;;;;;6219703;23;20218;-64
2022/04/14 00:30:38;;;;;;;18.83;11.25;;;;;;;;;;6220036;23;20153;-64
2022/04/14 00:33:04;;;;;;;18.92;11.63;;;;;;;;;;6220254;23;20160;-64
2022/04/14 00:35:30;;;;;;;18.20;11.10;;;;;;;;;;6219467;23;20141;-64
2022/04/14 00:37:56;;;;;;;17.35;10.65;;;;;;;;;;6220292;23;20141;-64
2022/04/14 00:40:22;;;;;;;17.73;10.48;;;;;;;;;;6220468;23;20169;-64
2022/04/14 00:42:48;;;;;;;14.38;9.52;;;;;;;;;;6219915;23;20515;-64
2022/04/14 00:45:14;;;;;;;16.60;9.80;;;;;;;;;;6220640;23;20219;-64
2022/04/14 00:47:40;;;;;;;15.88;10.05;;;;;;;;;;6223527;23;20144;-64
2022/04/14 00:50:06;;;;;;;18.30;10.25;;;;;;;;;;6199071;23;20168;-64
2022/04/14 00:52:32;;;;;;;15.98;10.02;;;;;;;;;;6228077;23;20141;-65
2022/04/14 00:54:58;;;;;;;16.98;10.30;;;;;;;;;;6228849;23;20220;-65
2022/04/14 00:57:24;;;;;;;16.40;10.27;;;;;;;;;;6227995;23;20160;-65
2022/04/14 00:59:50;;;;;;;17.10;10.85;;;;;;;;;;6226254;23;20157;-64
2022/04/14 01:02:16;;;;;;;16.25;9.85;;;;;;;;;;6226280;23;20184;-64
2022/04/14 01:04:42;;;;;;;17.20;10.82;;;;;;;;;;6226024;23;20207;-65
2022/04/14 01:07:09;;;;;;;16.67;10.38;;;;;;;;;;6226300;23;20148;-64
2022/04/14 01:09:36;;;;;;;19.27;10.63;;;;;;;;;;6221335;23;20231;-63
2022/04/14 01:12:03;;;;;;;19.85;10.98;;;;;;;;;;6225939;23;20130;-63
2022/04/14 01:14:31;;;;;;;17.38;11.07;;;;;;;;;;6221894;23;20140;-64
2022/04/14 01:16:58;;;;;;;14.88;9.88;;;;;;;;;;6219550;23;20215;-64
2022/04/14 01:19:24;;;;;;;16.80;11.15;;;;;;;;;;6220958;23;20152;-64
2022/04/14 01:22:20;;;;;;;17.58;10.82;;;;;;;;;;6222242;23;20145;-64
2022/04/14 01:24:47;;;;;;;16.23;9.88;;;;;;;;;;6223259;23;20122;-64
2022/04/14 01:27:13;;;;;;;12.90;9.40;;;;;;;;;;6221515;23;20241;-64
2022/04/14 01:29:39;;;;;;;13.77;9.52;;;;;;;;;;6202315;23;20153;-64
2022/04/14 01:32:05;;;;;;;15.38;8.85;;;;;;;;;;6231724;23;20605;-64
2022/04/14 01:34:31;;;;;;;12.73;8.25;;;;;;;;;;6232307;23;20141;-64
2022/04/14 01:37:00;;;;;;;13.38;8.20;;;;;;;;;;6232991;23;20199;-64
2022/04/14 01:39:30;;;;;;;12.38;6.95;;;;;;;;;;6223998;23;20163;-64
2022/04/14 01:41:56;;;;;;;12.90;7.50;;;;;;;;;;6219279;23;20196;-64
2022/04/14 01:44:22;;;;;;;10.15;6.95;;;;;;;;;;6219507;23;20145;-64
2022/04/14 01:46:47;;;;;;;8.43;6.20;;;;;;;;;;6219398;23;20476;-64
2022/04/14 01:49:13;;;;;;;11.32;6.60;;;;;;;;;;6219359;23;20418;-64
2022/04/14 01:51:39;;;;;;;11.07;6.68;;;;;;;;;;6219811;23;20159;-64
2022/04/14 01:54:06;;;;;;;10.55;6.78;;;;;;;;;;6219989;23;20203;-64
2022/04/14 01:56:32;;;;;;;8.98;6.18;;;;;;;;;;6219430;23;20235;-64
2022/04/14 01:58:58;;;;;;;9.88;6.38;;;;;;;;;;6218607;23;20141;-64
2022/04/14 02:01:24;;;;;;;9.82;7.07;;;;;;;;;;6218500;23;20262;-64
2022/04/14 02:03:50;;;;;;;13.18;6.90;;;;;;;;;;6218466;23;20137;-64
2022/04/14 02:06:17;;;;;;;11.65;7.35;;;;;;;;;;6218596;23;20151;-64
2022/04/14 02:08:43;;;;;;;10.30;6.22;;;;;;;;;;6218353;23;20141;-64
2022/04/14 02:11:11;;;;;;;12.95;7.75;;;;;;;;;;6217759;23;20565;-64
2022/04/14 02:13:37;;;;;;;10.82;7.05;;;;;;;;;;6218140;23;20153;-64
2022/04/14 02:16:03;;;;;;;12.57;7.57;;;;;;;;;;6217977;23;20145;-64
2022/04/14 02:18:29;;;;;;;13.50;7.85;;;;;;;;;;6217616;23;20501;-64
2022/04/14 02:20:55;;;;;;;14.55;7.72;;;;;;;;;;6217909;23;20180;-64
2022/04/14 02:23:21;;;;;;;12.90;7.88;;;;;;;;;;6217732;23;20441;-64
2022/04/14 02:25:47;;;;;;;12.82;7.93;;;;;;;;;;6217664;23;20137;-64
2022/04/14 02:28:16;;;;;;;14.27;8.00;;;;;;;;;;6218094;23;20141;-64
2022/04/14 02:30:41;;;;;;;13.77;8.38;;;;;;;;;;6218068;23;20283;-64
2022/04/14 02:33:07;;;;;;;13.73;9.13;;;;;;;;;;6217728;23;20148;-64
2022/04/14 02:35:33;;;;;;;13.13;9.43;;;;;;;;;;6217729;23;20141;-65
2022/04/14 02:37:59;;;;;;;15.45;10.13;;;;;;;;;;6217703;23;20141;-65
2022/04/14 02:40:26;;;;;;;17.45;10.63;;;;;;;;;;6218263;23;20161;-64
2022/04/14 02:42:56;;;;;;;15.10;10.38;;;;;;;;;;6218534;23;20141;-64
2022/04/14 02:45:23;;;;;;;15.95;10.98;;;;;;;;;;6218610;23;20169;-64
2022/04/14 02:47:48;;;;;;;19.02;11.10;;;;;;;;;;6219344;23;20137;-64
2022/04/14 02:50:14;;;;;;;16.55;11.45;;;;;;;;;;6220165;23;20151;-64
2022/04/14 02:52:40;;;;;;;20.20;12.13;;;;;;;;;;6219549;23;20208;-64
2022/04/14 02:55:07;;;;;;;17.80;11.63;;;;;;;;;;6220000;23;20168;-64
2022/04/14 02:57:34;;;;;;;16.00;10.48;;;;;;;;;;6219365;23;20156;-64
2022/04/14 03:00:00;;;;;;;19.10;11.48;;;;;;;;;;6219450;23;20222;-64
2022/04/14 03:02:26;;;;;;;17.27;11.18;;;;;;;;;;6219466;23;20196;-64
2022/04/14 03:04:53;;;;;;;17.88;11.65;;;;;;;;;;6219506;23;20143;-64
2022/04/14 03:07:19;;;;;;;17.33;11.73;;;;;;;;;;6219115;23;20554;-64
2022/04/14 03:09:46;;;;;;;19.10;12.05;;;;;;;;;;6219082;23;20171;-64
2022/04/14 03:12:12;;;;;;;18.55;11.38;;;;;;;;;;6219196;23;20137;-64
2022/04/14 03:14:38;;;;;;;17.27;11.55;;;;;;;;;;6219640;23;20141;-65
2022/04/14 03:17:04;;;;;;;20.15;11.65;;;;;;;;;;6192629;23;20145;-64
2022/04/14 03:19:30;;;;;;;18.80;11.52;;;;;;;;;;6218954;23;20441;-64
2022/04/14 03:21:58;;;;;;;17.27;10.80;;;;;;;;;;6218872;23;20148;-64
2022/04/14 03:24:24;;;;;;;14.05;9.75;;;;;;;;;;6219267;23;20137;-64
2022/04/14 03:26:49;;;;;;;15.98;10.55;;;;;;;;;;6219136;23;20484;-64
2022/04/14 03:29:15;;;;;;;16.67;10.18;;;;;;;;;;6218961;23;20137;-65
2022/04/14 03:31:41;;;;;;;14.73;9.93;;;;;;;;;;6218876;23;20459;-65
2022/04/14 03:34:07;;;;;;;13.63;8.95;;;;;;;;;;6219190;23;20140;-64
2022/04/14 03:36:33;;;;;;;16.63;9.88;;;;;;;;;;6218854;23;20517;-64
2022/04/14 03:38:59;;;;;;;15.35;10.00;;;;;;;;;;6219250;23;20141;-64
2022/04/14 03:41:25;;;;;;;14.23;9.35;;;;;;;;;;6218948;23;20161;-64
2022/04/14 03:43:51;;;;;;;13.23;8.85;;;;;;;;;;6219228;23;20498;-65
2022/04/14 03:46:19;;;;;;;12.80;8.52;;;;;;;;;;6219217;23;20163;-64
2022/04/14 03:48:45;;;;;;;14.07;8.77;;;;;;;;;;6219235;23;20516;-64
2022/04/14 03:51:14;;;;;;;13.18;8.38;;;;;;;;;;6219334;23;20141;-64
2022/04/14 03:53:40;;;;;;;15.70;8.27;;;;;;;;;;6218965;23;20149;-64
2022/04/14 03:56:06;;;;;;;13.43;8.32;;;;;;;;;;6218355;23;20236;-64
2022/04/14 03:58:32;;;;;;;11.98;7.97;;;;;;;;;;6218813;23;20437;-64
2022/04/14 04:00:58;;;;;;;13.15;7.50;;;;;;;;;;6218612;23;20168;-64
2022/04/14 04:03:24;;;;;;;15.68;7.85;;;;;;;;;;6218540;23;20557;-64
2022/04/14 04:05:49;;;;;;;12.98;7.88;;;;;;;;;;6218027;23;20545;-64
2022/04/14 04:08:15;;;;;;;12.48;7.53;;;;;;;;;;6218832;23;20165;-64
2022/04/14 04:10:41;;;;;;;13.20;7.47;;;;;;;;;;6219087;23;20468;-64
2022/04/14 04:13:07;;;;;;;11.85;7.72;;;;;;;;;;6219091;23;20224;-64
2022/04/14 04:15:33;;;;;;;12.90;8.02;;;;;;;;;;6218323;23;20147;-64
2022/04/14 04:17:59;;;;;;;15.73;8.65;;;;;;;;;;6218610;23;20149;-64
2022/04/14 04:20:25;;;;;;;13.57;7.65;;;;;;;;;;6218198;23;20207;-64
2022/04/14 04:22:51;;;;;;;13.93;7.68;;;;;;;;;;6218141;23;20140;-64
2022/04/14 04:25:17;;;;;;;11.40;7.63;;;;;;;;;;6218459;23;20572;-64
2022/04/14 04:27:43;;;;;;;12.32;8.30;;;;;;;;;;6218516;23;20137;-64
2022/04/14 04:30:09;;;;;;;13.93;9.15;;;;;;;;;;6219047;23;20152;-64
2022/04/14 04:32:35;;;;;;;13.43;8.73;;;;;;;;;;6218619;23;20195;-64
2022/04/14 04:35:06;;;;;;;14.70;8.27;;;;;;;;;;6218870;23;20141;-64
2022/04/14 04:37:32;;;;;;;15.68;8.80;;;;;;;;;;6218617;23;20549;-64
2022/04/14 04:39:58;;;;;;;13.98;8.57;;;;;;;;;;6218531;23;20168;-64
2022/04/14 04:42:24;;;;;;;17.20;9.43;;;;;;;;;;6218990;23;20148;-64
2022/04/14 04:44:50;;;;;;;13.63;8.95;;;;;;;;;;6218929;23;20137;-63
2022/04/14 04:47:16;;;;;;;15.48;9.23;;;;;;;;;;6217990;23;20137;-65
2022/04/14 04:49:42;;;;;;;16.98;9.85;;;;;;;;;;6217949;23;20144;-65
2022/04/14 04:52:08;;;;;;;17.77;10.68;;;;;;;;;;6191347;23;20235;-65
2022/04/14 04:54:34;;;;;;;15.88;10.68;;;;;;;;;;6217663;23;20145;-65
2022/04/14 04:57:00;;;;;;;16.65;10.25;;;;;;;;;;6217643;23;20270;-65
2022/04/14 04:59:26;;;;;;;16.50;10.63;;;;;;;;;;6217293;23;20441;-65
2022/04/14 05:01:52;;;;;;;16.88;11.35;;;;;;;;;;6217533;23;20183;-65
2022/04/14 05:04:18;;;;;;;19.20;11.05;;;;;;;;;;6217890;23;20418;-64
2022/04/14 05:06:44;;;;;;;18.40;11.18;;;;;;;;;;6217911;23;20148;-64
2022/04/14 05:09:10;;;;;;;16.77;10.77;;;;;;;;;;6228569;23;20175;-65
2022/04/14 05:11:36;;;;;;;18.08;10.43;;;;;;;;;;6221647;23;20167;-65
2022/04/14 05:14:02;;;;;;;15.25;10.07;;;;;;;;;;6218360;23;20248;-65
2022/04/14 05:16:28;;;;;;;16.27;10.27;;;;;;;;;;6218856;23;20224;-65
2022/04/14 05:18:54;;;;;;;15.63;10.25;;;;;;;;;;6218493;23;20569;-66
2022/04/14 05:21:19;;;;;;;17.70;10.93;;;;;;;;;;6218514;23;20168;-65
2022/04/14 05:23:45;;;;;;;13.25;9.63;;;;;;;;;;6218343;23;20187;-65
2022/04/14 05:26:11;;;;;;;15.98;10.13;;;;;;;;;;6218666;23;20148;-65
2022/04/14 05:28:37;;;;;;;17.35;10.15;;;;;;;;;;6218723;23;20152;-65
2022/04/14 05:31:03;;;;;;;14.32;8.88;;;;;;;;;;6219075;23;20453;-64
2022/04/14 05:33:29;;;;;;;14.93;9.05;;;;;;;;;;6218837;23;20145;-63
2022/04/14 05:35:55;;;;;;;17.10;9.52;;;;;;;;;;6219274;23;20475;-64
2022/04/14 05:38:21;;;;;;;16.05;9.40;;;;;;;;;;6218049;23;20479;-64
2022/04/14 05:40:47;;;;;;;14.30;9.50;;;;;;;;;;6218781;23;20161;-65
2022/04/14 05:43:20;;;;;;;12.25;8.52;;;;;;;;;;6218219;23;20137;-65
2022/04/14 05:45:49;;;;;;;15.68;9.57;;;;;;;;;;6218524;23;20145;-65
2022/04/14 05:48:15;;;;;;;15.70;9.27;;;;;;;;;;6217665;23;20638;-64
2022/04/14 05:50:42;;;;;;;15.23;9.13;;;;;;;;;;6218107;23;20639;-65
2022/04/14 05:53:08;;;;;;;13.80;8.85;;;;;;;;;;6218675;23;20148;-64
2022/04/14 05:55:34;;;;;;;14.20;9.20;;;;;;;;;;6218463;23;20191;-65
2022/04/14 05:58:00;;;;;;;15.40;8.38;;;;;;;;;;6218119;23;20438;-64
2022/04/14 06:00:26;;;;;;;13.60;8.05;;;;;;;;;;6218543;23;20183;-65
2022/04/14 06:02:52;;;;;;;12.80;7.90;;;;;;;;;;6218016;23;20457;-65
2022/04/14 06:05:18;;;;;;;12.70;8.38;;;;;;;;;;6217932;23;20168;-65
2022/04/14 06:07:44;;;;;;;13.50;8.23;;;;;;;;;;6218242;23;20137;-65
2022/04/14 06:10:09;;;;;;;12.73;7.82;;;;;;;;;;6218474;23;20160;-65
2022/04/14 06:12:35;;;;;;;12.93;7.93;;;;;;;;;;6218189;23;20600;-63
2022/04/14 06:15:02;;;;;;;12.65;7.53;;;;;;;;;;6217555;23;20149;-65
2022/04/14 06:17:28;;;;;;;12.48;8.02;;;;;;;;;;6218320;23;20144;-65
2022/04/14 06:19:56;;;;;;;10.02;7.25;;;;;;;;;;6217918;23;20168;-64
2022/04/14 06:22:22;;;;;;;10.70;7.20;;;;;;;;;;6217814;23;20141;-64
2022/04/14 06:24:47;;;;;;;10.40;6.00;;;;;;;;;;6218458;23;20187;-64
2022/04/14 06:27:13;;;;;;;10.15;7.07;;;;;;;;;;6218166;23;20231;-64
2022/04/14 06:29:39;;;;;;;12.32;8.38;;;;;;;;;;6218171;23;20199;-64
2022/04/14 06:32:05;;;;;;;12.25;7.72;;;;;;;;;;6217814;23;20168;-64
2022/04/14 06:34:31;;;;;;;11.48;7.07;;;;;;;;;;6218164;23;20436;-64
2022/04/14 06:36:57;;;;;;;12.73;7.63;;;;;;;;;;6218069;23;20145;-64
2022/04/14 06:39:23;;;;;;;12.60;7.40;;;;;;;;;;6218019;23;20144;-64
2022/04/14 06:41:49;;;;;;;12.00;6.85;;;;;;;;;;6218584;23;20165;-64
2022/04/14 06:44:16;;;;;;;11.40;7.10;;;;;;;;;;6218254;23;20175;-64
2022/04/14 06:46:42;;;;;;;12.70;7.10;;;;;;;;;;6218490;23;20145;-64
2022/04/14 06:49:08;;;;;;;13.48;6.95;;;;;;;;;;6218532;23;20224;-64
2022/04/14 06:51:34;;;;;;;10.32;6.57;;;;;;;;;;6218692;23;20503;-64
2022/04/14 06:54:00;;;;;;;9.95;6.57;;;;;;;;;;6218308;23;20152;-64
2022/04/14 06:56:26;;;;;;;12.15;6.30;;;;;;;;;;6218550;23;20227;-64
2022/04/14 06:58:51;;;;;;;9.05;6.30;;;;;;;;;;6218448;23;20540;-64
2022/04/14 07:01:17;;;;;;;8.32;5.35;;;;;;;;;;6217739;23;20165;-65
2022/04/14 07:03:43;;;;;;;8.50;6.03;;;;;;;;;;6217993;23;20396;-65
2022/04/14 07:06:09;;;;;;;10.70;6.28;;;;;;;;;;6218261;23;20215;-64
2022/04/14 07:08:38;;;;;;;9.68;6.20;;;;;;;;;;6218275;23;20203;-64
2022/04/14 07:11:04;;;;;;;8.77;5.80;;;;;;;;;;6218033;23;20230;-64
2022/04/14 07:13:30;;;;;;;10.50;5.82;;;;;;;;;;6217263;23;20152;-64
2022/04/14 07:15:57;;;;;;;8.57;6.18;;;;;;;;;;6218386;23;20137;-63
2022/04/14 07:18:23;;;;;;;11.43;6.43;;;;;;;;;;6218446;23;20145;-64
2022/04/14 07:20:49;;;;;;;11.07;6.20;;;;;;;;;;6218744;23;20597;-64
2022/04/14 07:23:15;;;;;;;9.80;5.95;;;;;;;;;;6218886;23;20191;-64
2022/04/14 07:25:41;;;;;;;10.80;6.65;;;;;;;;;;6218699;23;20589;-64
2022/04/14 07:28:07;;;;;;;10.25;6.68;;;;;;;;;;6218213;23;20137;-64
2022/04/14 07:30:33;;;;;;;12.02;7.60;;;;;;;;;;6219215;23;20510;-64
2022/04/14 07:33:05;;;;;;;10.68;7.07;;;;;;;;;;6218475;23;20438;-63
2022/04/14 07:35:32;;;;;;;10.30;6.78;;;;;;;;;;6219348;23;20199;-64
2022/04/14 07:37:58;;;;;;;9.45;6.45;;;;;;;;;;6218114;23;20163;-64
2022/04/14 07:40:24;;;;;;;12.02;6.95;;;;;;;;;;6217242;23;20175;-64
2022/04/14 07:42:50;;;;;;;11.73;6.90;;;;;;;;;;6217093;23;20525;-64
2022/04/14 07:45:16;;;;;;;10.98;6.68;;;;;;;;;;6217354;23;20163;-64
2022/04/14 07:47:43;;;;;;;14.02;7.40;;;;;;;;;;6217631;23;20141;-64
2022/04/14 07:50:14;;;;;;;11.27;6.97;;;;;;;;;;6218356;23;20149;-64
2022/04/14 07:52:54;;;;;;;11.18;6.47;;;;;;;;;;6218816;23;20141;-64
2022/04/14 07:55:21;;;;;;;14.75;7.43;;;;;;;;;;6218749;23;20152;-64
2022/04/14 07:57:47;;;;;;;15.40;7.40;;;;;;;;;;6218227;23;20189;-64
2022/04/14 08:00:13;;;;;;;14.25;8.27;;;;;;;;;;6217928;23;20171;-63
2022/04/14 08:02:46;;;;;;;12.43;7.57;;;;;;;;;;6218091;23;20137;-63
2022/04/14 08:05:12;;;;;;;10.80;7.43;;;;;;;;;;6219341;23;20417;-63
2022/04/14 08:07:38;;;;;;;12.75;7.38;;;;;;;;;;6219361;23;20147;-63
2022/04/14 08:10:04;;;;;;;12.70;7.47;;;;;;;;;;6217893;23;20171;-63
2022/04/14 08:12:30;;;;;;;14.52;7.50;;;;;;;;;;6217334;23;20322;-63
2022/04/14 08:14:56;;;;;;;12.85;7.43;;;;;;;;;;6217142;23;20180;-63
2022/04/14 08:17:22;;;;;;;12.75;6.97;;;;;;;;;;6217250;23;20140;-63
2022/04/14 08:19:48;;;;;;;10.23;6.35;;;;;;;;;;6216753;23;20194;-63
2022/04/14 08:22:14;;;;;;;13.95;7.38;;;;;;;;;;6217187;23;20144;-63
2022/04/14 08:24:41;;;;;;;10.30;6.65;;;;;;;;;;6217057;23;20144;-64
2022/04/14 08:27:07;;;;;;;10.63;6.97;;;;;;;;;;6216982;23;20443;-64
2022/04/14 08:29:33;;;;;;;9.77;6.93;;;;;;;;;;6216964;23;20136;-65
2022/04/14 08:31:58;;;;;;;10.55;6.93;;;;;;;;;;6216853;23;20235;-64
2022/04/14 08:34:25;;;;;;;11.40;7.05;;;;;;;;;;6217204;23;20148;-64
2022/04/14 08:36:52;;;;;;;9.73;6.72;;;;;;;;;;6217048;23;20178;-64
2022/04/14 08:39:18;;;;;;;10.43;7.10;;;;;;;;;;6217136;23;20503;-63
2022/04/14 08:41:45;;;;;;;11.15;7.20;;;;;;;;;;6217071;23;20168;-65
2022/04/14 08:44:13;;;;;;;10.05;6.55;;;;;;;;;;6216527;23;20418;-63
2022/04/14 08:46:40;;;;;;;10.43;7.07;;;;;;;;;;6217072;23;20143;-64
2022/04/14 08:49:07;;;;;;;11.43;7.03;;;;;;;;;;6216725;23;20235;-63
2022/04/14 08:51:36;;;;;;;9.27;6.72;;;;;;;;;;6216766;23;20140;-63
2022/04/14 08:54:02;;;;;;;9.85;6.45;;;;;;;;;;6216640;23;20504;-63
2022/04/14 08:56:28;;;;;;;11.02;7.65;;;;;;;;;;6216783;23;20148;-64
2022/04/14 08:58:55;;;;;;;13.05;8.32;;;;;;;;;;6216706;23;20438;-64
2022/04/14 09:01:21;;;;;;;11.38;7.55;;;;;;;;;;6216567;23;20164;-64
2022/04/14 09:03:47;;;;;;;10.80;7.50;;;;;;;;;;6216258;23;20159;-65
2022/04/14 09:06:14;;;;;;;11.52;7.70;;;;;;;;;;6216271;23;20170;-65
2022/04/14 09:08:40;;;;;;;10.65;8.55;;;;;;;;;;6217279;23;20168;-65
2022/04/14 09:11:08;;;;;;;12.40;8.68;;;;;;;;;;6215971;23;20152;-64
2022/04/14 09:13:37;;;;;;;14.32;8.70;;;;;;;;;;6216225;23;20144;-64
2022/04/14 09:16:03;;;;;;;8.57;6.72;;;;;;;;;;6216510;23;20144;-65
2022/04/14 09:18:29;;;;;;;12.02;8.68;;;;;;;;;;6216356;23;20144;-64
2022/04/14 09:21:02;;;;;;;11.65;8.13;;;;;;;;;;6215822;23;20164;-65
2022/04/14 09:23:28;;;;;;;13.20;8.98;;;;;;;;;;6216312;23;20175;-65
2022/04/14 09:26:03;;;;;;;12.02;8.43;;;;;;;;;;6216247;23;20173;-64
2022/04/14 09:28:29;;;;;;;12.30;8.50;;;;;;;;;;6216190;23;20535;-65
2022/04/14 09:31:05;;;;;;;10.27;8.45;;;;;;;;;;6216090;23;20151;-65
2022/04/14 09:33:32;;;;;;;11.75;8.27;;;;;;;;;;6216365;23;20144;-65
2022/04/14 09:36:27;;;;;;;13.05;9.18;;;;;;;;;;6215838;23;20202;-65
2022/04/14 09:38:55;;;;;;;12.40;9.60;;;;;;;;;;6197059;23;20152;-65
2022/04/14 09:41:40;;;;;;;12.90;9.55;;;;;;;;;;6216187;23;20515;-65
2022/04/14 09:44:06;;;;;;;12.00;9.85;;;;;;;;;;6216402;23;20548;-65
2022/04/14 09:46:32;;;;;;;12.88;9.38;;;;;;;;;;6215910;23;20143;-65
2022/04/14 09:49:08;;;;;;;11.57;9.65;;;;;;;;;;6216322;23;20144;-65
2022/04/14 09:51:55;;;;;;;13.13;9.20;;;;;;;;;;6216360;23;20150;-65
2022/04/14 09:54:28;;;;;;;12.68;8.70;;;;;;;;;;6215895;23;20427;-65
2022/04/14 09:56:55;;;;;;;11.77;9.45;;;;;;;;;;6215952;23;20133;-65
2022/04/14 09:59:25;;;;;;;12.02;9.88;;;;;;;;;;6215751;23;20619;-65
2022/04/14 10:02:10;;;;;;;13.38;9.43;;;;;;;;;;6216131;23;20160;-64
2022/04/14 10:04:37;;;;;;;14.35;9.05;;;;;;;;;;6215722;23;20267;-65
2022/04/14 10:07:05;;;;;;;13.00;10.02;;;;;;;;;;6216093;23;20184;-65
2022/04/14 10:09:31;;;;;;;14.75;10.05;;;;;;;;;;6215859;23;20254;-64
2022/04/14 10:11:57;;;;;;;14.25;10.27;;;;;;;;;;6215811;23;20184;-64
2022/04/14 10:14:24;;;;;;;13.57;10.13;;;;;;;;;;6215769;23;20140;-64
2022/04/14 10:16:51;;;;;;;15.95;10.70;;;;;;;;;;6215991;23;20155;-64
2022/04/14 10:19:18;;;;;;;17.25;10.50;;;;;;;;;;6215820;23;20469;-64
2022/04/14 10:21:45;;;;;;;16.70;10.90;;;;;;;;;;6215970;23;20460;-65
2022/04/14 10:24:12;;;;;;;18.73;11.35;;;;;;;;;;6216109;23;20145;-65
2022/04/14 10:26:38;;;;;;;18.85;12.02;;;;;;;;;;6215929;23;20141;-65
2022/04/14 10:29:06;;;;;;;18.52;12.32;;;;;;;;;;6215634;23;20360;-65
2022/04/14 10:31:35;;;;;;;21.27;12.73;;;;;;;;;;6216148;23;20149;-65
2022/04/14 10:34:04;;;;;;;17.70;12.73;;;;;;;;;;6215930;23;20275;-65
2022/04/14 10:36:30;;;;;;;21.63;13.90;;;;;;;;;;6215778;23;20493;-66
2022/04/14 10:38:57;;;;;;;21.67;13.25;;;;;;;;;;6215660;23;20546;-65
2022/04/14 10:41:25;;;;;;;20.80;13.82;;;;;;;;;;6215452;23;20596;-64
2022/04/14 10:43:51;;;;;;;26.63;16.27;;;;;;;;;;6215837;23;20148;-64
2022/04/14 10:46:18;;;;;;;27.25;17.30;;;;;;;;;;6215154;23;20137;-65
2022/04/14 10:48:44;;;;;;;25.98;16.83;;;;;;;;;;6215710;23;20152;-65
2022/04/14 10:51:27;;;;;;;26.42;17.23;;;;;;;;;;6215372;23;20220;-63
2022/04/14 10:54:05;;;;;;;29.10;17.40;;;;;;;;;;6216295;23;20416;-64
2022/04/14 10:56:34;;;;;;;26.15;17.63;;;;;;;;;;6215374;23;20145;-64
2022/04/14 10:59:11;;;;;;;25.60;16.50;;;;;;;;;;6215568;23;20152;-64
2022/04/14 11:01:46;;;;;;;23.38;16.13;;;;;;;;;;6215449;23;20597;-64
2022/04/14 11:04:22;;;;;;;25.80;16.40;;;;;;;;;;6215706;23;20190;-64
2022/04/14 11:06:50;;;;;;;26.58;16.65;;;;;;;;;;6215591;23;20263;-65
2022/04/14 11:09:35;;;;;;;22.33;15.27;;;;;;;;;;6218558;23;20155;-64
2022/04/14 11:12:02;;;;;;;21.58;15.25;;;;;;;;;;6217517;23;20143;-64
2022/04/14 11:14:28;;;;;;;21.17;13.95;;;;;;;;;;6217049;23;20249;-65
2022/04/14 11:16:54;;;;;;;19.88;13.52;;;;;;;;;;6217152;23;20141;-64
2022/04/14 11:19:26;;;;;;;19.35;13.32;;;;;;;;;;6217573;23;20148;-65
2022/04/14 11:22:09;;;;;;;18.70;12.68;;;;;;;;;;6217360;23;20160;-65
2022/04/14 11:24:42;;;;;;;16.90;12.48;;;;;;;;;;6217126;23;20204;-64
2022/04/14 11:27:21;;;;;;;17.42;12.73;;;;;;;;;;6216874;23;20440;-63
2022/04/14 11:29:49;;;;;;;18.92;12.20;;;;;;;;;;6217615;23;20214;-63
2022/04/14 11:32:15;;;;;;;17.48;12.65;;;;;;;;;;6217522;23;20145;-63
2022/04/14 11:34:42;;;;;;;16.23;12.02;;;;;;;;;;6218344;23;20204;-63
2022/04/14 11:37:26;;;;;;;15.77;11.63;;;;;;;;;;6217384;23;20219;-63
2022/04/14 11:40:10;;;;;;;15.02;11.70;;;;;;;;;;6217872;23;20279;-63
2022/04/14 11:42:36;;;;;;;15.93;11.32;;;;;;;;;;6218247;23;20397;-64
2022/04/14 11:45:03;;;;;;;12.52;9.75;;;;;;;;;;6218338;23;20148;-64
2022/04/14 11:47:29;;;;;;;12.00;9.40;;;;;;;;;;6218388;23;20206;-64
2022/04/14 11:49:55;;;;;;;12.95;10.07;;;;;;;;;;6218367;23;20157;-63
2022/04/14 11:52:24;;;;;;;11.63;9.85;;;;;;;;;;6192140;23;20144;-64
2022/04/14 11:54:50;;;;;;;10.13;8.65;;;;;;;;;;6218454;23;20167;-64
2022/04/14 11:57:20;;;;;;;12.60;8.80;;;;;;;;;;6218454;23;20140;-64
2022/04/14 11:59:48;;;;;;;10.02;8.30;;;;;;;;;;6217754;23;20140;-64
2022/04/14 12:02:14;;;;;;;14.45;9.07;;;;;;;;;;6218079;23;20151;-64
2022/04/14 12:04:42;;;;;;;10.68;8.70;;;;;;;;;;6217933;23;20672;-64
2022/04/14 12:07:09;;;;;;;9.75;8.07;;;;;;;;;;6191222;23;20496;-64
2022/04/14 12:09:37;;;;;;;13.07;8.95;;;;;;;;;;6217373;23;20167;-64
2022/04/14 12:12:29;;;;;;;9.93;8.35;;;;;;;;;;6217190;23;20156;-64
2022/04/14 12:14:55;;;;;;;10.93;7.57;;;;;;;;;;6214146;23;20164;-64
2022/04/14 12:17:22;;;;;;;11.40;8.88;;;;;;;;;;6217837;23;20145;-64
2022/04/14 12:19:55;;;;;;;10.05;7.40;;;;;;;;;;6216636;23;20634;-64
2022/04/14 12:22:23;;;;;;;11.00;8.05;;;;;;;;;;6216961;23;20160;-65
2022/04/14 12:24:53;;;;;;;8.38;6.95;;;;;;;;;;6216978;23;20155;-65
2022/04/14 12:27:26;;;;;;;7.40;5.85;;;;;;;;;;6216435;23;20137;-65
2022/04/14 12:29:53;;;;;;;6.25;5.35;;;;;;;;;;6217010;23;20195;-65
2022/04/14 12:32:23;;;;;;;6.38;5.35;;;;;;;;;;6216521;23;20227;-65
2022/04/14 12:34:49;;;;;;;5.40;4.70;;;;;;;;;;6216795;23;20207;-65
2022/04/14 12:37:18;;;;;;;6.82;4.80;;;;;;;;;;6216445;23;20566;-65
2022/04/14 12:40:03;;;;;;;4.35;3.80;;;;;;;;;;6216829;23;20214;-65
2022/04/14 12:42:32;;;;;;;6.15;5.35;;;;;;;;;;6216048;23;20650;-65
2022/04/14 12:45:01;;;;;;;6.30;5.70;;;;;;;;;;6216400;23;20148;-64
2022/04/14 12:47:31;;;;;;;5.90;5.03;;;;;;;;;;6216150;23;20151;-65
2022/04/14 12:49:58;;;;;;;7.38;5.57;;;;;;;;;;6216177;23;20708;-65
2022/04/14 12:52:24;;;;;;;6.13;4.88;;;;;;;;;;6216558;23;20331;-65
2022/04/14 12:54:50;;;;;;;7.00;5.30;;;;;;;;;;6216127;23;20141;-65
2022/04/14 12:57:20;;;;;;;6.53;4.60;;;;;;;;;;6216366;23;20150;-65
2022/04/14 13:00:04;;;;;;;6.18;4.82;;;;;;;;;;6216534;23;20156;-65
2022/04/14 13:02:30;;;;;;;4.78;4.05;;;;;;;;;;6216080;23;20446;-65
2022/04/14 13:05:12;;;;;;;5.68;4.80;;;;;;;;;;6216554;23;20147;-64
2022/04/14 13:07:54;;;;;;;7.00;5.50;;;;;;;;;;6216355;23;20141;-64
2022/04/14 13:10:24;;;;;;;7.13;5.60;;;;;;;;;;6216534;23;20599;-65
2022/04/14 13:12:50;;;;;;;6.80;4.80;;;;;;;;;;6216679;23;20140;-65
2022/04/14 13:15:17;;;;;;;7.35;6.07;;;;;;;;;;6216496;23;20151;-65
2022/04/14 13:17:43;;;;;;;7.60;5.70;;;;;;;;;;6216224;23;20171;-65
2022/04/14 13:20:10;;;;;;;6.53;5.10;;;;;;;;;;6216693;23;20140;-65
2022/04/14 13:22:36;;;;;;;3.80;3.35;;;;;;;;;;6215929;23;20140;-64
2022/04/14 13:25:03;;;;;;;5.07;3.20;;;;;;;;;;6217901;23;20159;-64
2022/04/14 13:27:29;;;;;;;4.55;3.10;;;;;;;;;;6215798;23;20141;-64
2022/04/14 13:29:55;;;;;;;4.57;3.20;;;;;;;;;;6216201;23;20611;-65
2022/04/14 13:32:20;;;;;;;3.60;3.30;;;;;;;;;;6215836;23;20147;-65
2022/04/14 13:34:46;;;;;;;5.13;3.83;;;;;;;;;;6216779;23;20144;-64
2022/04/14 13:37:12;;;;;;;4.53;3.95;;;;;;;;;;6216422;23;20194;-63
2022/04/14 13:39:38;;;;;;;5.03;3.70;;;;;;;;;;6216336;23;20140;-65
2022/04/14 13:42:04;;;;;;;4.78;3.45;;;;;;;;;;6216298;23;20584;-65
2022/04/14 13:44:31;;;;;;;6.53;4.78;;;;;;;;;;6216371;23;20137;-64
2022/04/14 13:46:57;;;;;;;4.75;3.80;;;;;;;;;;6216170;23;20140;-65
2022/04/14 13:49:23;;;;;;;4.88;3.42;;;;;;;;;;6216617;23;20549;-66
2022/04/14 13:51:49;;;;;;;5.53;4.20;;;;;;;;;;6216248;23;20300;-65
2022/04/14 13:54:16;;;;;;;5.25;4.30;;;;;;;;;;6215672;23;20231;-65
2022/04/14 13:56:41;;;;;;;5.68;4.63;;;;;;;;;;6216265;23;20148;-65
2022/04/14 13:59:07;;;;;;;5.80;4.75;;;;;;;;;;6216063;23;20159;-65
2022/04/14 14:01:33;;;;;;;4.90;4.13;;;;;;;;;;6216389;23;20243;-64
2022/04/14 14:03:59;;;;;;;5.90;4.88;;;;;;;;;;6215791;23;20614;-64
2022/04/14 14:06:26;;;;;;;5.70;4.57;;;;;;;;;;6215633;23;20140;-64
2022/04/14 14:08:52;;;;;;;5.32;4.70;;;;;;;;;;6216020;23;20236;-65
2022/04/14 14:11:18;;;;;;;6.40;4.95;;;;;;;;;;6215615;23;20152;-64
2022/04/14 14:13:45;;;;;;;6.70;5.30;;;;;;;;;;6215993;23;20153;-65
2022/04/14 14:16:11;;;;;;;7.28;5.20;;;;;;;;;;6215771;23;20443;-64
2022/04/14 14:18:37;;;;;;;8.73;5.38;;;;;;;;;;6216315;23;20172;-64
2022/04/14 14:21:03;;;;;;;7.63;5.53;;;;;;;;;;6216327;23;20176;-66
2022/04/14 14:23:29;;;;;;;6.78;5.00;;;;;;;;;;6216352;23;20148;-65
2022/04/14 14:25:56;;;;;;;6.88;5.40;;;;;;;;;;6216734;23;20215;-65
2022/04/14 14:28:22;;;;;;;8.05;5.45;;;;;;;;;;6216364;23;20263;-64
2022/04/14 14:30:48;;;;;;;9.45;5.85;;;;;;;;;;6215893;23;20144;-65